Time;durP1;ratioP1;P1;durP2;ratioP2;P2;SDS_P1;SDS_P2;PMS_P1;PMS_P2;Temp;Humidity;BMP_temperature;BMP_pressure;BME280_temperature;BME280_humidity;BME280_pressure;Samples;Min_cycle;Max_cycle;Signal;HPM_P1;HPM_P2
2021/12/28 00:01:24;;;;;;;5.40;1.02;;;7.20;99.90;;;;;;4983372;28;20038;-76
2021/12/28 00:03:51;;;;;;;3.88;1.10;;;7.10;99.90;;;;;;4982212;28;20391;-76
2021/12/28 00:06:17;;;;;;;5.25;1.35;;;7.10;99.90;;;;;;4985913;28;20026;-75
2021/12/28 00:08:43;;;;;;;6.72;1.13;;;7.10;99.90;;;;;;4981462;28;20518;-76
2021/12/28 00:11:09;;;;;;;5.18;1.48;;;7.10;99.90;;;;;;4984483;28;20034;-76
2021/12/28 00:13:36;;;;;;;2.25;1.13;;;7.10;99.90;;;;;;4983882;28;20057;-76
2021/12/28 00:18:33;;;;;;;3.17;0.90;;;7.10;99.90;;;;;;4984642;28;20089;-76
2021/12/28 00:21:02;;;;;;;4.47;1.52;;;7.10;99.90;;;;;;4963685;28;20446;-76
2021/12/28 00:23:38;;;;;;;4.35;1.40;;;7.10;99.90;;;;;;4966089;28;20022;-76
2021/12/28 00:26:13;;;;;;;9.93;1.60;;;7.10;99.90;;;;;;4978221;28;20034;-75
2021/12/28 00:28:40;;;;;;;5.35;1.00;;;7.10;99.90;;;;;;4975931;28;20471;-75
2021/12/28 00:31:07;;;;;;;4.45;1.05;;;7.10;99.90;;;;;;4979532;28;20607;-75
2021/12/28 00:33:33;;;;;;;6.03;1.45;;;7.10;99.90;;;;;;4980058;28;20061;-76
2021/12/28 00:35:59;;;;;;;10.95;1.95;;;7.10;99.90;;;;;;4979455;28;21766;-75
2021/12/28 00:38:26;;;;;;;8.43;1.30;;;7.10;99.90;;;;;;4978260;28;20035;-76
2021/12/28 00:40:56;;;;;;;8.10;1.15;;;7.20;99.90;;;;;;4977668;28;20041;-76
2021/12/28 00:43:22;;;;;;;6.80;1.20;;;7.30;99.90;;;;;;4980059;28;20034;-75
2021/12/28 00:45:48;;;;;;;6.28;1.65;;;7.30;99.90;;;;;;4977989;28;20069;-76
2021/12/28 00:48:14;;;;;;;4.45;1.35;;;7.40;99.90;;;;;;4979724;28;20026;-76
2021/12/28 00:50:41;;;;;;;5.40;1.50;;;7.50;99.90;;;;;;4986525;28;20021;-76
2021/12/28 00:53:07;;;;;;;7.07;1.48;;;7.60;99.90;;;;;;4980728;28;20019;-76
2021/12/28 00:55:33;;;;;;;12.35;1.55;;;7.60;99.90;;;;;;4980488;28;20097;-76
2021/12/28 00:58:00;;;;;;;11.63;2.30;;;7.60;99.90;;;;;;4987386;28;21274;-75
2021/12/28 01:00:33;;;;;;;9.10;1.73;;;7.70;99.90;;;;;;4987914;28;20026;-75
2021/12/28 01:03:00;;;;;;;6.78;1.63;;;7.70;99.90;;;;;;4983735;28;20057;-76
2021/12/28 01:05:27;;;;;;;6.38;1.40;;;7.70;99.90;;;;;;4967681;28;20042;-76
2021/12/28 01:07:55;;;;;;;13.27;2.03;;;7.60;99.90;;;;;;4987768;28;20023;-76
2021/12/28 01:10:28;;;;;;;9.38;2.03;;;7.70;99.90;;;;;;4972720;28;20430;-76
2021/12/28 01:12:55;;;;;;;7.78;1.48;;;7.60;99.90;;;;;;4985198;28;20430;-76
2021/12/28 01:15:23;;;;;;;7.40;2.30;;;7.60;99.90;;;;;;4987254;28;20093;-75
2021/12/28 01:17:48;;;;;;;8.73;1.80;;;7.60;99.90;;;;;;4995061;23;20042;-75
2021/12/28 01:20:15;;;;;;;9.70;2.38;;;7.50;99.90;;;;;;4970217;28;20089;-75
2021/12/28 01:22:43;;;;;;;8.50;1.50;;;7.50;99.90;;;;;;4991313;28;20040;-75
2021/12/28 01:25:09;;;;;;;11.02;1.80;;;7.40;99.90;;;;;;4987521;28;20069;-75
2021/12/28 01:27:35;;;;;;;8.30;1.90;;;7.40;99.90;;;;;;4982353;28;20027;-74
2021/12/28 01:30:02;;;;;;;9.88;2.40;;;7.40;99.90;;;;;;4991749;28;20093;-75
2021/12/28 01:32:27;;;;;;;5.53;1.50;;;7.40;99.90;;;;;;4972654;28;20065;-76
2021/12/28 01:34:53;;;;;;;6.20;1.48;;;7.40;99.90;;;;;;4974355;28;20065;-75
2021/12/28 01:37:19;;;;;;;6.65;2.05;;;7.30;99.90;;;;;;4993234;28;20109;-75
2021/12/28 01:39:44;;;;;;;10.98;2.30;;;7.30;99.90;;;;;;4990709;28;20034;-75
2021/12/28 01:42:10;;;;;;;8.35;1.83;;;7.30;99.90;;;;;;4991897;28;20072;-75
2021/12/28 01:44:36;;;;;;;9.10;2.38;;;7.30;99.90;;;;;;4992661;28;20636;-75
2021/12/28 01:47:03;;;;;;;6.68;2.00;;;7.30;99.90;;;;;;4974925;28;20033;-75
2021/12/28 01:49:30;;;;;;;8.52;1.75;;;7.20;99.90;;;;;;4987714;28;20460;-76
2021/12/28 01:51:57;;;;;;;8.48;1.75;;;7.20;99.90;;;;;;4991230;28;20062;-75
2021/12/28 01:54:22;;;;;;;9.15;2.10;;;7.20;99.90;;;;;;4965187;28;20057;-75
2021/12/28 01:56:49;;;;;;;8.07;1.67;;;7.20;99.90;;;;;;4990611;28;20069;-75
2021/12/28 01:59:19;;;;;;;9.10;2.15;;;7.20;99.90;;;;;;4995573;28;20096;-75
2021/12/28 02:01:46;;;;;;;9.10;1.85;;;7.20;99.90;;;;;;4971349;28;20487;-76
2021/12/28 02:04:23;;;;;;;9.68;1.75;;;7.20;99.90;;;;;;4971761;28;20111;-75
2021/12/28 02:06:50;;;;;;;7.40;1.85;;;7.10;99.90;;;;;;4994042;28;20037;-75
2021/12/28 02:09:16;;;;;;;10.18;2.03;;;7.20;99.90;;;;;;4990586;28;20026;-75
2021/12/28 02:11:42;;;;;;;9.93;2.17;;;7.20;99.90;;;;;;4987002;28;20376;-75
2021/12/28 02:14:10;;;;;;;11.73;2.50;;;7.10;99.90;;;;;;4989008;28;20034;-75
2021/12/28 02:16:41;;;;;;;9.68;1.73;;;7.20;99.90;;;;;;4989321;28;20038;-75
2021/12/28 02:19:09;;;;;;;7.20;2.25;;;7.10;99.90;;;;;;4978020;28;20037;-76
2021/12/28 02:21:35;;;;;;;12.20;2.72;;;7.10;99.90;;;;;;4987833;28;20026;-76
2021/12/28 02:24:03;;;;;;;7.47;2.10;;;7.10;99.90;;;;;;4973555;28;20028;-75
2021/12/28 02:26:29;;;;;;;6.45;1.92;;;7.20;99.90;;;;;;4995466;28;20018;-75
2021/12/28 02:28:55;;;;;;;6.55;1.98;;;7.10;99.90;;;;;;4992987;28;20023;-75
2021/12/28 02:31:21;;;;;;;6.63;1.85;;;7.10;99.90;;;;;;4985721;28;20022;-76
2021/12/28 02:33:50;;;;;;;6.07;1.52;;;7.10;99.90;;;;;;4974276;28;20046;-76
2021/12/28 02:36:17;;;;;;;12.27;1.77;;;7.20;99.90;;;;;;4990136;28;20474;-75
2021/12/28 02:38:44;;;;;;;10.60;1.95;;;7.10;99.90;;;;;;4992998;28;20046;-75
2021/12/28 02:41:10;;;;;;;8.20;1.83;;;7.10;99.90;;;;;;4987738;28;20100;-76
2021/12/28 02:43:40;;;;;;;4.38;1.60;;;7.10;99.90;;;;;;4987971;28;21241;-76
2021/12/28 02:46:08;;;;;;;7.57;1.90;;;7.10;99.90;;;;;;4987421;28;20019;-75
2021/12/28 02:48:35;;;;;;;5.03;1.70;;;7.10;99.90;;;;;;4992211;28;20026;-76
2021/12/28 02:51:11;;;;;;;5.25;1.63;;;7.10;99.90;;;;;;4975522;28;20030;-75
2021/12/28 02:53:37;;;;;;;9.57;1.90;;;7.10;99.90;;;;;;4987785;28;20034;-75
2021/12/28 02:56:04;;;;;;;9.93;2.03;;;7.10;99.90;;;;;;4992763;28;20027;-75
2021/12/28 02:58:36;;;;;;;6.80;2.00;;;7.10;99.90;;;;;;4987689;28;20046;-75
2021/12/28 03:01:24;;;;;;;5.72;1.65;;;7.00;99.90;;;;;;4994375;28;20508;-75
2021/12/28 03:03:54;;;;;;;8.55;2.50;;;7.10;99.90;;;;;;4981817;28;20038;-75
2021/12/28 03:06:22;;;;;;;6.80;2.00;;;7.10;99.90;;;;;;4989333;28;20442;-75
2021/12/28 03:08:53;;;;;;;6.32;1.98;;;7.10;99.90;;;;;;4991801;28;20034;-75
2021/12/28 03:11:19;;;;;;;6.78;1.40;;;7.10;99.90;;;;;;4994642;28;20030;-75
2021/12/28 03:13:48;;;;;;;5.68;1.73;;;7.10;99.90;;;;;;4988557;28;20030;-75
2021/12/28 03:16:16;;;;;;;7.03;2.13;;;7.10;99.90;;;;;;4972749;28;20375;-75
2021/12/28 03:18:41;;;;;;;6.90;1.67;;;7.10;99.90;;;;;;4990613;28;20034;-75
2021/12/28 03:21:11;;;;;;;9.35;1.90;;;7.10;99.90;;;;;;4993328;28;20032;-75
2021/12/28 03:23:38;;;;;;;5.47;1.67;;;7.20;99.90;;;;;;4985545;28;20391;-75
2021/12/28 03:26:06;;;;;;;5.38;1.65;;;7.20;99.90;;;;;;4992525;28;20231;-75
2021/12/28 03:28:35;;;;;;;4.32;1.92;;;7.20;99.90;;;;;;4998085;28;20026;-75
2021/12/28 03:31:04;;;;;;;5.95;1.65;;;7.20;99.90;;;;;;4992005;28;20033;-75
2021/12/28 03:33:32;;;;;;;4.03;1.70;;;7.20;99.90;;;;;;4988644;28;20041;-75
2021/12/28 03:35:59;;;;;;;5.57;1.70;;;7.20;99.90;;;;;;4976817;28;20032;-75
2021/12/28 03:38:25;;;;;;;3.45;1.45;;;7.30;99.90;;;;;;4988005;28;20030;-75
2021/12/28 03:40:51;;;;;;;6.78;1.92;;;7.30;99.90;;;;;;4988922;28;20034;-75
2021/12/28 03:43:17;;;;;;;4.90;1.50;;;7.30;99.90;;;;;;4975796;28;20474;-75
2021/12/28 03:45:44;;;;;;;3.47;1.23;;;7.40;99.90;;;;;;4992027;28;20026;-75
2021/12/28 03:48:09;;;;;;;6.65;1.60;;;7.40;99.90;;;;;;4989381;28;20402;-75
2021/12/28 03:50:36;;;;;;;2.80;1.23;;;7.40;99.90;;;;;;4990093;28;20046;-75
2021/12/28 03:53:03;;;;;;;6.80;1.50;;;7.40;99.90;;;;;;4988012;28;20026;-74
2021/12/28 03:55:28;;;;;;;7.07;1.58;;;7.50;99.90;;;;;;4986689;28;20037;-75
2021/12/28 03:57:56;;;;;;;5.65;1.38;;;7.50;99.90;;;;;;4991376;28;20431;-74
2021/12/28 04:00:23;;;;;;;3.90;1.63;;;7.50;99.90;;;;;;4992919;28;20041;-75
2021/12/28 04:02:49;;;;;;;9.50;1.88;;;7.50;99.90;;;;;;4973869;28;20398;-75
2021/12/28 04:05:16;;;;;;;2.08;1.13;;;7.60;99.90;;;;;;4986891;28;20076;-75
2021/12/28 04:07:43;;;;;;;3.47;1.45;;;7.60;99.90;;;;;;4992505;28;20118;-76
2021/12/28 04:10:11;;;;;;;5.70;1.90;;;7.60;99.90;;;;;;4994664;28;20058;-75
2021/12/28 04:12:38;;;;;;;3.85;1.45;;;7.60;99.90;;;;;;4995684;28;20060;-76
2021/12/28 04:15:07;;;;;;;3.42;1.10;;;7.70;99.90;;;;;;4989696;28;20034;-76
2021/12/28 04:17:37;;;;;;;4.32;1.23;;;7.70;99.90;;;;;;4991918;28;20027;-76
2021/12/28 04:20:06;;;;;;;2.22;1.20;;;7.70;99.90;;;;;;4985427;28;20046;-75
2021/12/28 04:22:31;;;;;;;6.95;1.58;;;7.70;99.90;;;;;;4997248;28;20025;-75
2021/12/28 04:24:57;;;;;;;4.30;1.40;;;7.70;99.90;;;;;;4983901;28;20022;-75
2021/12/28 04:27:23;;;;;;;3.80;1.70;;;7.70;99.90;;;;;;4993285;28;20026;-76
2021/12/28 04:29:49;;;;;;;4.53;1.40;;;7.70;99.90;;;;;;4976700;28;20442;-75
2021/12/28 04:32:14;;;;;;;2.67;1.58;;;7.70;99.90;;;;;;4989667;28;20038;-75
2021/12/28 04:34:40;;;;;;;4.22;1.58;;;7.70;99.90;;;;;;4988211;28;20749;-74
2021/12/28 04:37:06;;;;;;;4.78;2.05;;;7.70;99.90;;;;;;4995138;28;20081;-75
2021/12/28 04:39:31;;;;;;;4.85;1.48;;;7.70;99.90;;;;;;4992944;28;20026;-76
2021/12/28 04:41:57;;;;;;;3.97;1.52;;;7.70;99.90;;;;;;4988157;28;20109;-75
2021/12/28 04:44:25;;;;;;;3.67;1.98;;;7.60;99.90;;;;;;4997756;28;20057;-76
2021/12/28 04:46:52;;;;;;;4.40;1.60;;;7.60;99.90;;;;;;4973862;28;20026;-76
2021/12/28 04:49:20;;;;;;;4.30;1.85;;;7.60;99.90;;;;;;4988457;28;20026;-75
2021/12/28 04:51:47;;;;;;;5.85;1.67;;;7.70;99.90;;;;;;4990405;28;20256;-76
2021/12/28 04:54:13;;;;;;;4.32;1.67;;;7.60;99.90;;;;;;4988684;28;20025;-75
2021/12/28 04:56:41;;;;;;;5.72;1.88;;;7.60;99.90;;;;;;4990352;28;20046;-75
2021/12/28 04:59:07;;;;;;;2.75;1.83;;;7.60;99.90;;;;;;4991884;28;20027;-75
2021/12/28 05:01:36;;;;;;;3.58;1.75;;;7.60;99.90;;;;;;4986662;28;20564;-74
2021/12/28 05:04:03;;;;;;;4.88;1.88;;;7.60;99.90;;;;;;4990463;28;20029;-75
2021/12/28 05:06:30;;;;;;;3.20;1.83;;;7.60;99.90;;;;;;5002078;28;20021;-74
2021/12/28 05:08:55;;;;;;;4.40;1.83;;;7.60;99.90;;;;;;4978728;28;20105;-75
2021/12/28 05:11:21;;;;;;;3.03;2.10;;;7.60;99.90;;;;;;4988983;28;20124;-75
2021/12/28 05:13:48;;;;;;;4.68;2.00;;;7.60;99.90;;;;;;4995092;28;21461;-75
2021/12/28 05:16:15;;;;;;;2.13;1.60;;;7.60;99.90;;;;;;4995174;28;20030;-74
2021/12/28 05:18:41;;;;;;;4.30;1.73;;;7.70;99.90;;;;;;4974736;28;20037;-75
2021/12/28 05:21:07;;;;;;;4.05;1.40;;;7.70;99.90;;;;;;5001622;28;20025;-73
2021/12/28 05:23:33;;;;;;;4.60;1.67;;;7.70;99.90;;;;;;4977974;28;20117;-74
2021/12/28 05:25:59;;;;;;;3.05;1.65;;;7.70;99.90;;;;;;4990934;28;20025;-74
2021/12/28 05:28:25;;;;;;;3.25;1.40;;;7.70;99.90;;;;;;4993049;28;20031;-75
2021/12/28 05:30:52;;;;;;;4.18;1.52;;;7.70;99.90;;;;;;4991485;28;20034;-74
2021/12/28 05:33:18;;;;;;;3.42;1.80;;;7.70;99.90;;;;;;4990279;28;20078;-75
2021/12/28 05:35:44;;;;;;;2.75;1.70;;;7.70;99.90;;;;;;4995452;28;20057;-74
2021/12/28 05:38:12;;;;;;;2.30;1.60;;;7.70;99.90;;;;;;4996111;28;20042;-74
2021/12/28 05:40:38;;;;;;;2.25;1.48;;;7.70;99.90;;;;;;4994773;28;20029;-74
2021/12/28 05:43:04;;;;;;;4.88;1.83;;;7.70;99.90;;;;;;4999271;28;20109;-75
2021/12/28 05:45:30;;;;;;;3.42;1.52;;;7.70;99.90;;;;;;4993338;28;20034;-74
2021/12/28 05:47:55;;;;;;;1.73;1.02;;;7.80;99.90;;;;;;4977285;28;20026;-74
2021/12/28 05:50:21;;;;;;;4.07;1.50;;;7.80;99.90;;;;;;5001009;28;20025;-75
2021/12/28 05:52:47;;;;;;;2.88;1.50;;;7.80;99.90;;;;;;4995680;28;20683;-75
2021/12/28 05:55:13;;;;;;;3.22;1.80;;;7.80;99.90;;;;;;4994197;28;20033;-74
2021/12/28 05:57:39;;;;;;;2.88;1.23;;;7.90;99.90;;;;;;4990982;28;20121;-76
2021/12/28 06:00:09;;;;;;;3.30;1.35;;;7.90;99.90;;;;;;4990995;28;20031;-74
2021/12/28 06:02:35;;;;;;;3.50;0.95;;;7.90;99.90;;;;;;4994058;28;20025;-76
2021/12/28 06:05:00;;;;;;;3.22;1.00;;;7.90;99.90;;;;;;4991374;28;20394;-74
2021/12/28 06:07:27;;;;;;;2.13;1.10;;;7.90;99.90;;;;;;4992736;28;20510;-76
2021/12/28 06:09:55;;;;;;;1.60;0.90;;;8.00;99.90;;;;;;4994404;28;20360;-75
2021/12/28 06:12:21;;;;;;;1.73;0.90;;;8.00;99.90;;;;;;4993784;28;20053;-76
2021/12/28 06:14:46;;;;;;;1.17;0.68;;;8.00;99.90;;;;;;4993126;28;20053;-76
2021/12/28 06:17:12;;;;;;;1.80;0.90;;;8.10;99.90;;;;;;4993078;28;20060;-73
2021/12/28 06:19:38;;;;;;;1.52;0.80;;;8.10;99.90;;;;;;4975914;28;20466;-75
2021/12/28 06:22:04;;;;;;;1.80;0.60;;;8.10;99.90;;;;;;5000758;28;20297;-76
2021/12/28 06:24:29;;;;;;;2.42;0.98;;;8.20;99.90;;;;;;4993157;28;20023;-76
2021/12/28 06:26:55;;;;;;;1.42;0.75;;;8.20;99.90;;;;;;4980059;28;20466;-73
2021/12/28 06:29:21;;;;;;;1.65;0.60;;;8.20;99.90;;;;;;4998106;28;20098;-74
2021/12/28 06:31:47;;;;;;;2.67;0.75;;;8.20;99.90;;;;;;4991057;28;20022;-75
2021/12/28 06:34:12;;;;;;;3.03;0.98;;;8.30;99.90;;;;;;4993273;28;20479;-76
2021/12/28 06:36:38;;;;;;;0.80;0.57;;;8.30;99.90;;;;;;4990168;28;20030;-76
2021/12/28 06:39:05;;;;;;;1.13;0.50;;;8.30;99.90;;;;;;4994392;28;20022;-76
2021/12/28 06:41:31;;;;;;;1.20;0.40;;;8.30;99.90;;;;;;4994901;28;20038;-74
2021/12/28 06:43:56;;;;;;;1.42;0.50;;;8.40;99.90;;;;;;4989061;28;20033;-76
2021/12/28 06:46:22;;;;;;;1.45;0.40;;;8.40;99.90;;;;;;4991275;28;20439;-74
2021/12/28 06:48:48;;;;;;;1.02;0.40;;;8.40;99.90;;;;;;4990804;28;20420;-75
2021/12/28 06:51:14;;;;;;;0.77;0.40;;;8.40;99.90;;;;;;4989533;28;20034;-75
2021/12/28 06:53:40;;;;;;;0.50;0.40;;;8.40;99.90;;;;;;4996219;28;20057;-74
2021/12/28 06:56:06;;;;;;;0.63;0.30;;;8.50;99.90;;;;;;4979136;28;20118;-75
2021/12/28 06:58:32;;;;;;;0.30;0.30;;;8.50;99.90;;;;;;4987164;28;20044;-75
2021/12/28 07:00:58;;;;;;;0.40;0.30;;;8.50;99.90;;;;;;4988472;28;20466;-74
2021/12/28 07:03:24;;;;;;;0.40;0.30;;;8.50;99.90;;;;;;4993774;28;20034;-74
2021/12/28 07:05:49;;;;;;;0.63;0.20;;;8.60;99.90;;;;;;4995840;28;20553;-74
2021/12/28 07:08:15;;;;;;;0.25;0.20;;;8.60;99.90;;;;;;4994590;28;20041;-75
2021/12/28 07:10:42;;;;;;;2.20;0.20;;;8.60;99.90;;;;;;4992942;28;20382;-75
2021/12/28 07:13:08;;;;;;;1.60;0.30;;;8.70;99.90;;;;;;4993769;28;20065;-74
2021/12/28 07:15:34;;;;;;;0.63;0.20;;;8.70;99.90;;;;;;4984215;28;20036;-75
2021/12/28 07:18:04;;;;;;;1.00;0.50;;;8.70;99.90;;;;;;5021345;23;20104;-70
2021/12/28 07:20:33;;;;;;;0.43;0.20;;;8.80;99.90;;;;;;5026397;28;20478;-69
2021/12/28 07:22:58;;;;;;;0.22;0.15;;;8.80;99.90;;;;;;5028842;28;20107;-70
2021/12/28 07:25:24;;;;;;;0.55;0.20;;;8.80;99.90;;;;;;5033016;28;20101;-71
2021/12/28 07:27:53;;;;;;;0.10;0.10;;;8.80;99.90;;;;;;5025400;28;20104;-70
2021/12/28 07:30:18;;;;;;;0.57;0.20;;;8.80;99.90;;;;;;5027714;28;20127;-70
2021/12/28 07:32:44;;;;;;;0.22;0.20;;;8.80;99.90;;;;;;5032338;23;20497;-72
2021/12/28 07:35:11;;;;;;;0.60;0.20;;;8.80;99.90;;;;;;5032441;28;20553;-74
2021/12/28 07:37:37;;;;;;;0.63;0.20;;;8.70;99.90;;;;;;5039700;28;20021;-74
2021/12/28 07:40:04;;;;;;;1.05;0.20;;;8.70;99.90;;;;;;5032658;28;20099;-75
2021/12/28 07:42:30;;;;;;;0.40;0.30;;;8.70;99.90;;;;;;5028872;28;20026;-72
2021/12/28 07:44:56;;;;;;;0.65;0.20;;;8.70;99.90;;;;;;5035249;28;21788;-73
2021/12/28 07:47:22;;;;;;;0.50;0.32;;;8.70;99.90;;;;;;5015429;28;20026;-73
2021/12/28 07:49:47;;;;;;;2.03;0.47;;;8.70;99.90;;;;;;5033175;28;20030;-73
2021/12/28 07:52:13;;;;;;;0.45;0.20;;;8.80;99.90;;;;;;5033756;28;20029;-74
2021/12/28 07:54:39;;;;;;;0.20;0.17;;;8.80;99.90;;;;;;5030409;28;20022;-73
2021/12/28 07:57:05;;;;;;;0.43;0.30;;;8.90;99.90;;;;;;5013653;28;20044;-73
2021/12/28 07:59:31;;;;;;;0.20;0.10;;;9.00;99.90;;;;;;5026768;28;20033;-73
2021/12/28 08:01:56;;;;;;;0.52;0.10;;;9.10;99.90;;;;;;5033506;28;20025;-73
2021/12/28 08:04:22;;;;;;;0.40;0.10;;;9.10;99.90;;;;;;5027687;28;20025;-72
2021/12/28 08:06:48;;;;;;;2.42;0.20;;;9.10;99.90;;;;;;5024887;28;20057;-74
2021/12/28 08:09:13;;;;;;;0.77;0.25;;;9.10;99.90;;;;;;5032725;28;20103;-73
2021/12/28 08:11:42;;;;;;;0.22;0.20;;;9.20;99.90;;;;;;5033057;28;20065;-73
2021/12/28 08:14:08;;;;;;;1.30;0.10;;;9.20;99.90;;;;;;5033064;28;20341;-73
2021/12/28 08:16:33;;;;;;;0.30;0.10;;;9.20;99.90;;;;;;5015744;28;20044;-74
2021/12/28 08:19:00;;;;;;;0.30;0.22;;;9.20;99.90;;;;;;5033166;28;20067;-74
2021/12/28 08:21:26;;;;;;;0.30;0.20;;;9.20;99.90;;;;;;5033251;28;20492;-74
2021/12/28 08:23:52;;;;;;;1.45;0.35;;;9.30;99.90;;;;;;5033196;28;20112;-74
2021/12/28 08:26:20;;;;;;;0.60;0.22;;;9.30;99.90;;;;;;5013198;28;20030;-74
2021/12/28 08:28:46;;;;;;;0.25;0.25;;;9.30;99.90;;;;;;5014619;28;20235;-73
2021/12/28 08:31:12;;;;;;;0.40;0.22;;;9.40;99.90;;;;;;5013841;28;20141;-75
2021/12/28 08:33:38;;;;;;;0.55;0.20;;;9.50;99.90;;;;;;5025522;28;20088;-73
2021/12/28 08:36:07;;;;;;;0.50;0.28;;;9.50;99.90;;;;;;5028004;28;20458;-74
2021/12/28 08:38:32;;;;;;;0.22;0.20;;;9.50;99.90;;;;;;5033139;28;20532;-73
2021/12/28 08:40:59;;;;;;;0.63;0.22;;;9.60;99.90;;;;;;5032863;28;20068;-74
2021/12/28 08:43:26;;;;;;;0.40;0.25;;;9.60;99.90;;;;;;5032446;28;20021;-74
2021/12/28 08:45:52;;;;;;;0.15;0.13;;;9.60;99.90;;;;;;5032326;28;20101;-76
2021/12/28 08:48:18;;;;;;;0.20;0.10;;;9.70;99.90;;;;;;5037233;28;20510;-74
2021/12/28 08:50:47;;;;;;;0.30;0.25;;;9.70;99.90;;;;;;5028155;28;20089;-74
2021/12/28 08:53:13;;;;;;;0.50;0.17;;;9.80;99.90;;;;;;5021688;28;20034;-74
2021/12/28 08:55:40;;;;;;;0.30;0.20;;;9.90;99.90;;;;;;5014083;28;20034;-74
2021/12/28 08:58:05;;;;;;;0.60;0.30;;;10.00;99.90;;;;;;5013611;28;20033;-74
2021/12/28 09:00:33;;;;;;;0.30;0.20;;;10.00;99.90;;;;;;5031197;28;20052;-73
2021/12/28 09:03:00;;;;;;;0.20;0.10;;;10.10;99.90;;;;;;5014965;28;20183;-73
2021/12/28 09:05:27;;;;;;;0.43;0.20;;;10.10;99.90;;;;;;5021211;28;20386;-74
2021/12/28 09:07:54;;;;;;;0.57;0.20;;;10.20;99.90;;;;;;5048854;28;20017;-74
2021/12/28 09:10:21;;;;;;;0.55;0.20;;;10.20;99.90;;;;;;5039243;28;20028;-74
2021/12/28 09:12:47;;;;;;;0.22;0.20;;;10.20;99.90;;;;;;5034292;28;20029;-74
2021/12/28 09:15:13;;;;;;;0.15;0.10;;;10.30;99.90;;;;;;5032457;28;20061;-74
2021/12/28 09:17:45;;;;;;;0.32;0.20;;;10.30;99.90;;;;;;5006340;28;20400;-74
2021/12/28 09:20:14;;;;;;;2.05;0.22;;;10.30;99.90;;;;;;5009508;28;20026;-74
2021/12/28 09:22:43;;;;;;;0.32;0.20;;;10.40;99.90;;;;;;5026177;28;20030;-73
2021/12/28 09:25:09;;;;;;;0.30;0.20;;;10.40;99.90;;;;;;5016622;28;20602;-74
2021/12/28 09:27:35;;;;;;;0.20;0.10;;;10.50;99.90;;;;;;5032102;28;20029;-74
2021/12/28 09:30:02;;;;;;;0.20;0.20;;;10.60;99.90;;;;;;5028394;28;20171;-72
2021/12/28 09:32:27;;;;;;;0.20;0.20;;;10.60;99.90;;;;;;5014067;28;20037;-73
2021/12/28 09:34:55;;;;;;;1.90;0.22;;;10.70;99.90;;;;;;5033797;28;20079;-74
2021/12/28 09:37:21;;;;;;;8.98;0.80;;;10.70;99.90;;;;;;5021955;28;20414;-74
2021/12/28 09:39:47;;;;;;;0.32;0.20;;;10.70;99.90;;;;;;5031200;28;20334;-74
2021/12/28 09:42:18;;;;;;;8.63;0.90;;;10.80;99.90;;;;;;5030991;28;20021;-72
2021/12/28 09:44:49;;;;;;;6.20;0.43;;;10.90;99.90;;;;;;5033965;28;20475;-74
2021/12/28 09:47:16;;;;;;;4.35;0.50;;;11.00;99.90;;;;;;5026241;28;20046;-75
2021/12/28 09:49:42;;;;;;;4.70;0.60;;;11.00;99.90;;;;;;5015446;28;20105;-74
2021/12/28 09:52:08;;;;;;;1.23;0.40;;;11.00;99.90;;;;;;5018936;28;20098;-75
2021/12/28 09:54:34;;;;;;;0.30;0.13;;;11.10;99.90;;;;;;5032326;28;20107;-74
2021/12/28 09:57:02;;;;;;;0.17;0.17;;;11.10;99.90;;;;;;5033899;28;20025;-75
2021/12/28 09:59:29;;;;;;;0.50;0.10;;;11.20;99.90;;;;;;5029569;28;20026;-75
2021/12/28 10:01:58;;;;;;;0.55;0.35;;;11.20;99.90;;;;;;5029170;28;20091;-73
2021/12/28 10:04:24;;;;;;;0.50;0.20;;;11.30;99.90;;;;;;5027220;28;20049;-71
2021/12/28 10:06:50;;;;;;;0.65;0.35;;;11.30;99.90;;;;;;5032320;28;20017;-74
2021/12/28 10:09:20;;;;;;;0.65;0.15;;;11.30;99.90;;;;;;5013769;28;20037;-73
2021/12/28 10:11:56;;;;;;;0.20;0.20;;;11.30;99.90;;;;;;5031526;28;20500;-74
2021/12/28 10:14:24;;;;;;;0.55;0.25;;;11.30;99.90;;;;;;5037875;28;20151;-74
2021/12/28 10:16:55;;;;;;;1.05;0.30;;;11.30;99.90;;;;;;5032375;28;20036;-74
2021/12/28 10:19:32;;;;;;;0.13;0.13;;;11.30;99.90;;;;;;5027831;28;20051;-72
2021/12/28 10:22:17;;;;;;;2.20;0.30;;;11.30;99.90;;;;;;5014734;28;20029;-73
2021/12/28 10:24:44;;;;;;;1.15;0.10;;;11.40;99.90;;;;;;5026017;28;20768;-74
2021/12/28 10:27:30;;;;;;;0.55;0.30;;;11.40;99.90;;;;;;5033646;28;20022;-75
2021/12/28 10:30:24;;;;;;;0.10;0.10;;;11.40;99.90;;;;;;5035026;28;20520;-74
2021/12/28 10:32:56;;;;;;;0.50;0.20;;;11.40;99.90;;;;;;5013772;28;20049;-73
2021/12/28 10:35:28;;;;;;;1.42;0.20;;;11.40;99.90;;;;;;5028556;28;20491;-74
2021/12/28 10:37:57;;;;;;;0.95;0.20;;;11.50;99.90;;;;;;5024820;28;20402;-74
2021/12/28 10:40:24;;;;;;;1.33;0.20;;;11.50;99.90;;;;;;5035013;28;20060;-73
2021/12/28 10:42:55;;;;;;;0.30;0.22;;;11.60;99.90;;;;;;5012846;28;20030;-73
2021/12/28 10:45:27;;;;;;;0.63;0.30;;;11.60;99.90;;;;;;5029691;28;20049;-74
2021/12/28 10:47:54;;;;;;;0.55;0.20;;;11.70;99.90;;;;;;5010033;28;20021;-74
2021/12/28 10:50:31;;;;;;;0.20;0.20;;;11.80;99.90;;;;;;5009711;28;20025;-74
2021/12/28 10:53:12;;;;;;;0.30;0.20;;;11.80;99.90;;;;;;5012418;28;20037;-74
2021/12/28 10:55:41;;;;;;;0.40;0.20;;;11.80;99.90;;;;;;5004203;28;20562;-74
2021/12/28 10:58:07;;;;;;;0.40;0.30;;;11.90;99.90;;;;;;5029439;28;20022;-75
2021/12/28 11:00:42;;;;;;;1.40;0.45;;;11.80;99.90;;;;;;5034129;28;20462;-74
2021/12/28 11:03:17;;;;;;;1.20;0.30;;;11.80;99.90;;;;;;5016643;28;20118;-74
2021/12/28 11:05:47;;;;;;;0.43;0.20;;;11.80;99.90;;;;;;5030281;28;20025;-74
2021/12/28 11:08:13;;;;;;;0.55;0.28;;;11.80;99.90;;;;;;5011435;28;20025;-74
2021/12/28 11:10:53;;;;;;;1.75;0.40;;;11.80;99.90;;;;;;5028975;28;20037;-74
2021/12/28 11:13:21;;;;;;;1.15;0.28;;;11.80;99.90;;;;;;5009713;28;20406;-74
2021/12/28 11:15:48;;;;;;;0.43;0.20;;;12.00;99.90;;;;;;5025158;28;20113;-74
2021/12/28 11:18:25;;;;;;;0.52;0.30;;;12.00;99.90;;;;;;5019712;28;20461;-74
2021/12/28 11:20:54;;;;;;;0.82;0.30;;;12.00;99.90;;;;;;5033806;28;20026;-74
2021/12/28 11:23:22;;;;;;;1.52;0.65;;;12.00;99.90;;;;;;5031939;28;20029;-74
2021/12/28 11:26:09;;;;;;;0.60;0.30;;;12.00;99.90;;;;;;5007886;28;20033;-74
2021/12/28 11:28:36;;;;;;;1.08;0.50;;;12.10;99.90;;;;;;5025170;28;20026;-73
2021/12/28 11:31:13;;;;;;;2.13;0.32;;;12.10;99.90;;;;;;5034227;28;20124;-73
2021/12/28 11:33:46;;;;;;;0.45;0.30;;;12.10;99.90;;;;;;5012728;28;20067;-73
2021/12/28 11:36:12;;;;;;;1.52;0.40;;;12.20;99.90;;;;;;5031303;28;20152;-73
2021/12/28 11:38:39;;;;;;;0.47;0.30;;;12.20;99.90;;;;;;5018043;28;20099;-73
2021/12/28 11:41:06;;;;;;;0.95;0.20;;;12.30;99.90;;;;;;5028748;28;20040;-74
2021/12/28 11:43:39;;;;;;;0.30;0.20;;;12.30;99.90;;;;;;5009065;28;20025;-73
2021/12/28 11:46:06;;;;;;;0.50;0.20;;;12.40;99.90;;;;;;5027155;28;20025;-74
2021/12/28 11:48:32;;;;;;;1.02;0.35;;;12.50;99.90;;;;;;5033293;28;20040;-74
2021/12/28 11:50:58;;;;;;;1.38;0.30;;;12.50;99.90;;;;;;5013509;28;20049;-74
2021/12/28 11:53:26;;;;;;;1.00;0.28;;;12.40;99.90;;;;;;5004457;28;20042;-74
2021/12/28 11:55:56;;;;;;;1.50;0.38;;;12.40;99.90;;;;;;5027927;28;20029;-73
2021/12/28 11:58:53;;;;;;;0.85;0.20;;;12.40;99.90;;;;;;5015480;28;20025;-74
2021/12/28 12:02:04;;;;;;;1.00;0.50;;;12.40;99.90;;;;;;5006515;28;20622;-73
2021/12/28 12:04:35;;;;;;;1.80;0.40;;;12.40;99.90;;;;;;5021736;28;20061;-73
2021/12/28 12:07:05;;;;;;;0.65;0.32;;;12.40;99.90;;;;;;5031714;28;20026;-74
2021/12/28 12:09:54;;;;;;;0.32;0.22;;;12.40;99.90;;;;;;5025610;28;20033;-73
2021/12/28 12:12:25;;;;;;;0.75;0.40;;;12.50;99.90;;;;;;5032612;28;20021;-74
2021/12/28 12:14:50;;;;;;;7.88;0.60;;;12.50;99.90;;;;;;5025359;28;20408;-74
2021/12/28 12:17:28;;;;;;;2.10;1.20;;;12.50;99.90;;;;;;5033113;28;20045;-74
2021/12/28 12:19:56;;;;;;;1.60;0.70;;;12.50;99.90;;;;;;5034452;28;20393;-74
2021/12/28 12:22:30;;;;;;;1.63;0.60;;;12.50;99.90;;;;;;5008389;28;20030;-74
2021/12/28 12:25:06;;;;;;;0.68;0.45;;;12.50;99.90;;;;;;5027778;28;20540;-74
2021/12/28 12:27:50;;;;;;;0.65;0.47;;;12.50;99.90;;;;;;5030313;28;20075;-74
2021/12/28 12:30:24;;;;;;;0.32;0.30;;;12.50;99.90;;;;;;5030043;28;20025;-74
2021/12/28 12:33:14;;;;;;;0.73;0.30;;;12.50;99.90;;;;;;5004024;28;20029;-74
2021/12/28 12:35:48;;;;;;;1.45;0.60;;;12.50;99.90;;;;;;5030492;28;20025;-74
2021/12/28 12:38:26;;;;;;;1.27;0.40;;;12.50;99.90;;;;;;5014507;28;20053;-73
2021/12/28 12:40:59;;;;;;;0.93;0.45;;;12.50;99.90;;;;;;5009606;28;20124;-74
2021/12/28 12:43:39;;;;;;;0.68;0.25;;;12.50;99.90;;;;;;5026570;28;20021;-74
2021/12/28 12:46:11;;;;;;;0.70;0.30;;;12.50;99.90;;;;;;5024646;28;20076;-74
2021/12/28 12:48:40;;;;;;;1.27;0.68;;;12.50;99.90;;;;;;5026993;28;20032;-74
2021/12/28 12:51:47;;;;;;;1.50;0.70;;;12.50;99.90;;;;;;5010457;28;20048;-74
2021/12/28 12:54:19;;;;;;;3.45;0.95;;;12.40;99.90;;;;;;5027752;28;20065;-74
2021/12/28 12:56:50;;;;;;;2.03;0.63;;;12.40;99.90;;;;;;5032184;28;20029;-75
2021/12/28 12:59:16;;;;;;;1.90;0.50;;;12.40;99.90;;;;;;5007758;28;20034;-74
2021/12/28 13:01:42;;;;;;;0.50;0.40;;;12.40;99.90;;;;;;5029203;28;20086;-74